sensor_id;sensor_type;location;lat;lon;timestamp;temperature;humidity
3005;DHT22;1512;51.486;6.610;2022-09-25T00:01:29;13.70;99.90
3005;DHT22;1512;51.486;6.610;2022-09-25T00:06:07;13.70;99.90
3005;DHT22;1512;51.486;6.610;2022-09-25T00:10:16;13.70;99.90
3005;DHT22;1512;51.486;6.610;2022-09-25T00:14:25;13.60;99.90
3005;DHT22;1512;51.486;6.610;2022-09-25T00:18:34;13.50;99.90
3005;DHT22;1512;51.486;6.610;2022-09-25T00:23:00;13.50;99.90
3005;DHT22;1512;51.486;6.610;2022-09-25T00:27:09;13.40;99.90
3005;DHT22;1512;51.486;6.610;2022-09-25T00:31:20;13.40;99.90
3005;DHT22;1512;51.486;6.610;2022-09-25T00:35:33;13.40;99.90
3005;DHT22;1512;51.486;6.610;2022-09-25T00:39:41;13.40;99.90
3005;DHT22;1512;51.486;6.610;2022-09-25T00:43:52;13.40;99.90
3005;DHT22;1512;51.486;6.610;2022-09-25T00:48:08;13.40;99.90
3005;DHT22;1512;51.486;6.610;2022-09-25T00:52:17;13.40;99.90
3005;DHT22;1512;51.486;6.610;2022-09-25T00:56:30;13.40;99.90
3005;DHT22;1512;51.486;6.610;2022-09-25T01:00:39;13.50;99.90
3005;DHT22;1512;51.486;6.610;2022-09-25T01:04:48;13.50;99.90
3005;DHT22;1512;51.486;6.610;2022-09-25T01:08:59;13.60;99.90
3005;DHT22;1512;51.486;6.610;2022-09-25T01:13:07;13.60;99.90
3005;DHT22;1512;51.486;6.610;2022-09-25T01:17:40;13.50;99.90
3005;DHT22;1512;51.486;6.610;2022-09-25T01:22:41;13.50;99.90
3005;DHT22;1512;51.486;6.610;2022-09-25T01:26:39;13.50;99.90
3005;DHT22;1512;51.486;6.610;2022-09-25T01:30:46;13.40;99.90
3005;DHT22;1512;51.486;6.610;2022-09-25T01:35:14;13.40;99.90
3005;DHT22;1512;51.486;6.610;2022-09-25T01:39:29;13.40;99.90
3005;DHT22;1512;51.486;6.610;2022-09-25T01:43:59;13.50;99.90
3005;DHT22;1512;51.486;6.610;2022-09-25T01:48:05;13.50;99.90
3005;DHT22;1512;51.486;6.610;2022-09-25T01:52:19;13.50;99.90
3005;DHT22;1512;51.486;6.610;2022-09-25T01:56:35;13.50;99.90
3005;DHT22;1512;51.486;6.610;2022-09-25T02:00:46;13.40;99.90
3005;DHT22;1512;51.486;6.610;2022-09-25T02:04:58;13.40;99.90
3005;DHT22;1512;51.486;6.610;2022-09-25T02:14:07;13.40;99.90
3005;DHT22;1512;51.486;6.610;2022-09-25T02:18:17;13.40;99.90
3005;DHT22;1512;51.486;6.610;2022-09-25T02:22:45;13.40;99.90
3005;DHT22;1512;51.486;6.610;2022-09-25T02:26:55;13.40;99.90
3005;DHT22;1512;51.486;6.610;2022-09-25T02:31:07;13.30;99.90
3005;DHT22;1512;51.486;6.610;2022-09-25T02:35:16;13.20;99.90
3005;DHT22;1512;51.486;6.610;2022-09-25T02:39:27;13.10;99.90
3005;DHT22;1512;51.486;6.610;2022-09-25T02:44:09;13.20;99.90
3005;DHT22;1512;51.486;6.610;2022-09-25T02:48:27;13.10;99.90
3005;DHT22;1512;51.486;6.610;2022-09-25T02:56:53;13.10;99.90
3005;DHT22;1512;51.486;6.610;2022-09-25T03:00:59;13.10;99.90
3005;DHT22;1512;51.486;6.610;2022-09-25T03:05:10;13.10;99.90
3005;DHT22;1512;51.486;6.610;2022-09-25T03:09:21;13.20;99.90
3005;DHT22;1512;51.486;6.610;2022-09-25T03:13:30;13.10;99.90
3005;DHT22;1512;51.486;6.610;2022-09-25T03:17:39;13.10;99.90
3005;DHT22;1512;51.486;6.610;2022-09-25T03:21:48;13.10;99.90
3005;DHT22;1512;51.486;6.610;2022-09-25T03:25:57;13.10;99.90
3005;DHT22;1512;51.486;6.610;2022-09-25T03:30:08;13.00;99.90
3005;DHT22;1512;51.486;6.610;2022-09-25T03:34:44;13.00;99.90
3005;DHT22;1512;51.486;6.610;2022-09-25T03:38:55;12.90;99.90
3005;DHT22;1512;51.486;6.610;2022-09-25T03:43:25;12.90;99.90
3005;DHT22;1512;51.486;6.610;2022-09-25T03:47:53;12.90;99.90
3005;DHT22;1512;51.486;6.610;2022-09-25T03:52:02;12.80;99.90
3005;DHT22;1512;51.486;6.610;2022-09-25T03:56:17;12.80;99.90
3005;DHT22;1512;51.486;6.610;2022-09-25T04:00:27;12.70;99.90
3005;DHT22;1512;51.486;6.610;2022-09-25T04:04:36;12.70;99.90
3005;DHT22;1512;51.486;6.610;2022-09-25T04:08:45;12.70;99.90
3005;DHT22;1512;51.486;6.610;2022-09-25T04:12:54;12.70;99.90
3005;DHT22;1512;51.486;6.610;2022-09-25T04:17:03;12.80;99.90
3005;DHT22;1512;51.486;6.610;2022-09-25T04:21:13;12.70;99.90
3005;DHT22;1512;51.486;6.610;2022-09-25T04:25:22;12.70;99.90
3005;DHT22;1512;51.486;6.610;2022-09-25T04:29:33;12.70;99.90
3005;DHT22;1512;51.486;6.610;2022-09-25T04:33:42;12.60;99.90
3005;DHT22;1512;51.486;6.610;2022-09-25T04:37:55;12.60;99.90
3005;DHT22;1512;51.486;6.610;2022-09-25T04:42:04;12.60;99.90
3005;DHT22;1512;51.486;6.610;2022-09-25T04:46:13;12.60;99.90
3005;DHT22;1512;51.486;6.610;2022-09-25T04:50:24;12.60;99.90
3005;DHT22;1512;51.486;6.610;2022-09-25T04:54:32;12.60;99.90
3005;DHT22;1512;51.486;6.610;2022-09-25T04:58:46;12.60;99.90
3005;DHT22;1512;51.486;6.610;2022-09-25T05:02:56;12.60;99.90
3005;DHT22;1512;51.486;6.610;2022-09-25T05:07:05;12.50;99.90
3005;DHT22;1512;51.486;6.610;2022-09-25T05:11:14;12.50;99.90
3005;DHT22;1512;51.486;6.610;2022-09-25T05:15:23;12.50;99.90
3005;DHT22;1512;51.486;6.610;2022-09-25T05:19:32;12.40;99.90
3005;DHT22;1512;51.486;6.610;2022-09-25T05:23:42;12.40;99.90
3005;DHT22;1512;51.486;6.610;2022-09-25T05:27:55;12.40;99.90
3005;DHT22;1512;51.486;6.610;2022-09-25T05:32:06;12.30;99.90
3005;DHT22;1512;51.486;6.610;2022-09-25T05:36:14;12.20;99.90
3005;DHT22;1512;51.486;6.610;2022-09-25T05:40:24;12.10;99.90
3005;DHT22;1512;51.486;6.610;2022-09-25T05:44:33;12.20;99.90
3005;DHT22;1512;51.486;6.610;2022-09-25T05:48:42;12.20;99.90
3005;DHT22;1512;51.486;6.610;2022-09-25T05:52:55;12.20;99.90
3005;DHT22;1512;51.486;6.610;2022-09-25T05:57:04;12.40;99.90
3005;DHT22;1512;51.486;6.610;2022-09-25T06:01:13;12.40;99.90
3005;DHT22;1512;51.486;6.610;2022-09-25T06:05:21;12.30;99.90
3005;DHT22;1512;51.486;6.610;2022-09-25T06:09:30;12.20;99.90
3005;DHT22;1512;51.486;6.610;2022-09-25T06:13:38;12.20;99.90
3005;DHT22;1512;51.486;6.610;2022-09-25T06:17:49;12.20;99.90
3005;DHT22;1512;51.486;6.610;2022-09-25T06:21:58;12.10;99.90
3005;DHT22;1512;51.486;6.610;2022-09-25T06:26:06;12.10;99.90
3005;DHT22;1512;51.486;6.610;2022-09-25T06:30:16;12.00;99.90
3005;DHT22;1512;51.486;6.610;2022-09-25T06:34:26;11.90;99.90
3005;DHT22;1512;51.486;6.610;2022-09-25T06:38:35;11.90;99.90
3005;DHT22;1512;51.486;6.610;2022-09-25T06:42:43;11.90;99.90
3005;DHT22;1512;51.486;6.610;2022-09-25T06:46:52;11.80;99.90
3005;DHT22;1512;51.486;6.610;2022-09-25T06:51:01;11.80;99.90
3005;DHT22;1512;51.486;6.610;2022-09-25T06:55:10;11.80;99.90
3005;DHT22;1512;51.486;6.610;2022-09-25T06:59:18;11.90;99.90
3005;DHT22;1512;51.486;6.610;2022-09-25T07:03:27;11.90;99.90
3005;DHT22;1512;51.486;6.610;2022-09-25T07:07:55;12.00;99.90
3005;DHT22;1512;51.486;6.610;2022-09-25T07:12:04;12.10;99.90
3005;DHT22;1512;51.486;6.610;2022-09-25T07:16:16;12.10;99.90
3005;DHT22;1512;51.486;6.610;2022-09-25T07:20:25;12.20;99.90
3005;DHT22;1512;51.486;6.610;2022-09-25T07:24:33;12.20;99.90
3005;DHT22;1512;51.486;6.610;2022-09-25T07:28:43;12.20;99.90
3005;DHT22;1512;51.486;6.610;2022-09-25T07:32:51;12.20;99.90
3005;DHT22;1512;51.486;6.610;2022-09-25T07:37:02;12.20;99.90
3005;DHT22;1512;51.486;6.610;2022-09-25T07:41:10;12.30;99.90
3005;DHT22;1512;51.486;6.610;2022-09-25T07:45:20;12.30;99.90
3005;DHT22;1512;51.486;6.610;2022-09-25T07:49:29;12.40;99.90
3005;DHT22;1512;51.486;6.610;2022-09-25T07:53:39;12.60;99.90
3005;DHT22;1512;51.486;6.610;2022-09-25T07:57:48;12.70;99.90
3005;DHT22;1512;51.486;6.610;2022-09-25T08:01:58;12.80;99.90
3005;DHT22;1512;51.486;6.610;2022-09-25T08:06:26;12.90;99.90
3005;DHT22;1512;51.486;6.610;2022-09-25T08:10:35;13.00;99.90
3005;DHT22;1512;51.486;6.610;2022-09-25T08:14:44;13.10;99.90
3005;DHT22;1512;51.486;6.610;2022-09-25T08:18:56;13.10;99.90
3005;DHT22;1512;51.486;6.610;2022-09-25T08:23:05;13.30;99.90
3005;DHT22;1512;51.486;6.610;2022-09-25T08:27:15;13.50;99.90
3005;DHT22;1512;51.486;6.610;2022-09-25T08:31:25;13.60;99.90
3005;DHT22;1512;51.486;6.610;2022-09-25T08:35:34;13.60;99.90
3005;DHT22;1512;51.486;6.610;2022-09-25T08:39:43;13.70;99.90
3005;DHT22;1512;51.486;6.610;2022-09-25T08:48:20;14.00;99.90
3005;DHT22;1512;51.486;6.610;2022-09-25T08:53:09;14.00;99.90
3005;DHT22;1512;51.486;6.610;2022-09-25T09:01:48;14.30;99.90
3005;DHT22;1512;51.486;6.610;2022-09-25T09:06:01;14.60;99.90
3005;DHT22;1512;51.486;6.610;2022-09-25T09:14:45;14.90;99.90
3005;DHT22;1512;51.486;6.610;2022-09-25T09:18:54;14.90;99.90
3005;DHT22;1512;51.486;6.610;2022-09-25T09:23:04;15.00;99.90
3005;DHT22;1512;51.486;6.610;2022-09-25T09:31:38;15.10;99.90
3005;DHT22;1512;51.486;6.610;2022-09-25T09:36:06;15.30;99.90
3005;DHT22;1512;51.486;6.610;2022-09-25T09:45:19;15.60;99.90
3005;DHT22;1512;51.486;6.610;2022-09-25T09:49:47;15.70;99.90
3005;DHT22;1512;51.486;6.610;2022-09-25T09:54:10;15.70;99.90
3005;DHT22;1512;51.486;6.610;2022-09-25T09:58:30;15.90;99.90
3005;DHT22;1512;51.486;6.610;2022-09-25T10:02:40;16.20;99.90
3005;DHT22;1512;51.486;6.610;2022-09-25T10:06:58;16.20;99.90
3005;DHT22;1512;51.486;6.610;2022-09-25T10:11:17;16.30;99.90
3005;DHT22;1512;51.486;6.610;2022-09-25T10:15:32;16.40;99.90
3005;DHT22;1512;51.486;6.610;2022-09-25T10:19:46;16.40;99.90
3005;DHT22;1512;51.486;6.610;2022-09-25T10:23:54;16.70;99.90
3005;DHT22;1512;51.486;6.610;2022-09-25T10:28:25;16.80;99.90
3005;DHT22;1512;51.486;6.610;2022-09-25T10:33:02;16.90;99.90
3005;DHT22;1512;51.486;6.610;2022-09-25T10:37:18;16.70;99.90
3005;DHT22;1512;51.486;6.610;2022-09-25T10:41:28;16.50;99.90
3005;DHT22;1512;51.486;6.610;2022-09-25T10:45:39;16.10;99.90
3005;DHT22;1512;51.486;6.610;2022-09-25T10:49:47;16.20;99.90
3005;DHT22;1512;51.486;6.610;2022-09-25T10:54:15;16.60;99.90
3005;DHT22;1512;51.486;6.610;2022-09-25T10:58:31;16.90;99.90
3005;DHT22;1512;51.486;6.610;2022-09-25T11:02:38;16.80;99.90
3005;DHT22;1512;51.486;6.610;2022-09-25T11:06:49;16.70;99.90
3005;DHT22;1512;51.486;6.610;2022-09-25T11:11:00;16.90;99.90
3005;DHT22;1512;51.486;6.610;2022-09-25T11:15:14;17.10;99.90
3005;DHT22;1512;51.486;6.610;2022-09-25T11:19:29;17.30;99.90
3005;DHT22;1512;51.486;6.610;2022-09-25T11:23:58;17.50;99.90
3005;DHT22;1512;51.486;6.610;2022-09-25T11:28:03;17.60;99.90
3005;DHT22;1512;51.486;6.610;2022-09-25T11:36:42;17.80;99.90
3005;DHT22;1512;51.486;6.610;2022-09-25T11:41:03;17.70;99.90
3005;DHT22;1512;51.486;6.610;2022-09-25T11:49:38;16.90;99.90
3005;DHT22;1512;51.486;6.610;2022-09-25T11:54:12;16.70;99.90
3005;DHT22;1512;51.486;6.610;2022-09-25T11:58:24;16.70;99.90
3005;DHT22;1512;51.486;6.610;2022-09-25T12:16:11;17.70;99.90
3005;DHT22;1512;51.486;6.610;2022-09-25T12:47:09;18.00;99.90
3005;DHT22;1512;51.486;6.610;2022-09-25T12:51:35;18.00;99.90
3005;DHT22;1512;51.486;6.610;2022-09-25T12:55:47;18.10;99.90
3005;DHT22;1512;51.486;6.610;2022-09-25T12:59:58;18.20;99.90
3005;DHT22;1512;51.486;6.610;2022-09-25T13:09:01;18.30;99.90
3005;DHT22;1512;51.486;6.610;2022-09-25T13:13:13;18.30;99.90
3005;DHT22;1512;51.486;6.610;2022-09-25T13:17:23;18.30;99.90
3005;DHT22;1512;51.486;6.610;2022-09-25T13:21:34;18.40;99.90
3005;DHT22;1512;51.486;6.610;2022-09-25T13:25:45;18.30;99.90
3005;DHT22;1512;51.486;6.610;2022-09-25T13:29:59;18.40;99.90
3005;DHT22;1512;51.486;6.610;2022-09-25T13:34:13;18.30;99.90
3005;DHT22;1512;51.486;6.610;2022-09-25T13:38:22;18.50;99.90
3005;DHT22;1512;51.486;6.610;2022-09-25T13:51:33;17.80;99.90
3005;DHT22;1512;51.486;6.610;2022-09-25T13:56:03;17.50;99.90
3005;DHT22;1512;51.486;6.610;2022-09-25T14:00:00;17.30;99.90
3005;DHT22;1512;51.486;6.610;2022-09-25T14:04:18;17.20;99.90
3005;DHT22;1512;51.486;6.610;2022-09-25T14:08:26;17.20;99.90
3005;DHT22;1512;51.486;6.610;2022-09-25T14:12:47;17.20;99.90
3005;DHT22;1512;51.486;6.610;2022-09-25T14:16:57;17.10;99.90
3005;DHT22;1512;51.486;6.610;2022-09-25T14:21:07;17.30;99.90
3005;DHT22;1512;51.486;6.610;2022-09-25T14:25:24;17.40;99.90
3005;DHT22;1512;51.486;6.610;2022-09-25T14:29:38;17.40;99.90
3005;DHT22;1512;51.486;6.610;2022-09-25T14:38:55;17.40;99.90
3005;DHT22;1512;51.486;6.610;2022-09-25T14:43:22;17.50;99.90
3005;DHT22;1512;51.486;6.610;2022-09-25T14:47:46;17.40;99.90
3005;DHT22;1512;51.486;6.610;2022-09-25T14:51:59;17.20;99.90
3005;DHT22;1512;51.486;6.610;2022-09-25T14:56:08;17.10;99.90
3005;DHT22;1512;51.486;6.610;2022-09-25T15:00:48;17.00;99.90
3005;DHT22;1512;51.486;6.610;2022-09-25T15:04:57;17.00;99.90
3005;DHT22;1512;51.486;6.610;2022-09-25T15:09:35;17.00;99.90
3005;DHT22;1512;51.486;6.610;2022-09-25T15:13:44;17.00;99.90
3005;DHT22;1512;51.486;6.610;2022-09-25T15:17:55;17.00;99.90
3005;DHT22;1512;51.486;6.610;2022-09-25T15:22:17;16.90;99.90
3005;DHT22;1512;51.486;6.610;2022-09-25T15:26:27;16.70;99.90
3005;DHT22;1512;51.486;6.610;2022-09-25T15:30:36;16.50;99.90
3005;DHT22;1512;51.486;6.610;2022-09-25T15:34:47;16.30;99.90
3005;DHT22;1512;51.486;6.610;2022-09-25T15:38:59;16.20;99.90
3005;DHT22;1512;51.486;6.610;2022-09-25T15:43:13;16.10;99.90
3005;DHT22;1512;51.486;6.610;2022-09-25T15:51:51;16.00;99.90
3005;DHT22;1512;51.486;6.610;2022-09-25T15:56:02;16.00;99.90
3005;DHT22;1512;51.486;6.610;2022-09-25T16:04:49;16.00;99.90
3005;DHT22;1512;51.486;6.610;2022-09-25T16:09:09;16.00;99.90
3005;DHT22;1512;51.486;6.610;2022-09-25T16:13:23;16.00;99.90
3005;DHT22;1512;51.486;6.610;2022-09-25T16:17:36;16.00;99.90
3005;DHT22;1512;51.486;6.610;2022-09-25T16:21:45;15.90;99.90
3005;DHT22;1512;51.486;6.610;2022-09-25T16:25:54;15.80;99.90
3005;DHT22;1512;51.486;6.610;2022-09-25T16:30:13;15.80;99.90
3005;DHT22;1512;51.486;6.610;2022-09-25T16:43:24;15.70;99.90
3005;DHT22;1512;51.486;6.610;2022-09-25T16:47:34;15.60;99.90
3005;DHT22;1512;51.486;6.610;2022-09-25T16:51:44;15.60;99.90
3005;DHT22;1512;51.486;6.610;2022-09-25T16:55:54;15.50;99.90
3005;DHT22;1512;51.486;6.610;2022-09-25T17:00:05;15.50;99.90
3005;DHT22;1512;51.486;6.610;2022-09-25T17:04:15;15.50;99.90
3005;DHT22;1512;51.486;6.610;2022-09-25T17:08:24;15.40;99.90
3005;DHT22;1512;51.486;6.610;2022-09-25T17:12:33;15.30;99.90
3005;DHT22;1512;51.486;6.610;2022-09-25T17:16:42;15.20;99.90
3005;DHT22;1512;51.486;6.610;2022-09-25T17:20:52;15.10;99.90
3005;DHT22;1512;51.486;6.610;2022-09-25T17:25:04;15.00;99.90
3005;DHT22;1512;51.486;6.610;2022-09-25T17:29:12;15.00;99.90
3005;DHT22;1512;51.486;6.610;2022-09-25T17:33:22;14.90;99.90
3005;DHT22;1512;51.486;6.610;2022-09-25T17:37:30;15.00;99.90
3005;DHT22;1512;51.486;6.610;2022-09-25T17:41:41;15.00;99.90
3005;DHT22;1512;51.486;6.610;2022-09-25T17:45:54;15.00;99.90
3005;DHT22;1512;51.486;6.610;2022-09-25T17:50:03;15.00;99.90
3005;DHT22;1512;51.486;6.610;2022-09-25T17:54:12;14.90;99.90
3005;DHT22;1512;51.486;6.610;2022-09-25T17:58:40;14.70;99.90
3005;DHT22;1512;51.486;6.610;2022-09-25T18:02:52;14.70;99.90
3005;DHT22;1512;51.486;6.610;2022-09-25T18:07:00;14.70;99.90
3005;DHT22;1512;51.486;6.610;2022-09-25T18:11:11;14.70;99.90
3005;DHT22;1512;51.486;6.610;2022-09-25T18:15:21;14.70;99.90
3005;DHT22;1512;51.486;6.610;2022-09-25T18:19:32;14.70;99.90
3005;DHT22;1512;51.486;6.610;2022-09-25T18:23:59;14.70;99.90
3005;DHT22;1512;51.486;6.610;2022-09-25T18:28:08;14.70;99.90
3005;DHT22;1512;51.486;6.610;2022-09-25T18:32:17;14.70;99.90
3005;DHT22;1512;51.486;6.610;2022-09-25T18:36:26;14.70;99.90
3005;DHT22;1512;51.486;6.610;2022-09-25T18:40:34;14.70;99.90
3005;DHT22;1512;51.486;6.610;2022-09-25T18:44:43;14.70;99.90
3005;DHT22;1512;51.486;6.610;2022-09-25T18:48:52;14.70;99.90
3005;DHT22;1512;51.486;6.610;2022-09-25T18:53:02;14.60;99.90
3005;DHT22;1512;51.486;6.610;2022-09-25T18:57:12;14.50;99.90
3005;DHT22;1512;51.486;6.610;2022-09-25T19:01:21;14.50;99.90
3005;DHT22;1512;51.486;6.610;2022-09-25T19:05:29;14.30;99.90
3005;DHT22;1512;51.486;6.610;2022-09-25T19:09:39;14.30;99.90
3005;DHT22;1512;51.486;6.610;2022-09-25T19:13:48;14.20;99.90
3005;DHT22;1512;51.486;6.610;2022-09-25T19:17:57;14.10;99.90
3005;DHT22;1512;51.486;6.610;2022-09-25T19:22:07;14.00;99.90
3005;DHT22;1512;51.486;6.610;2022-09-25T19:26:20;13.90;99.90
3005;DHT22;1512;51.486;6.610;2022-09-25T19:30:31;13.90;99.90
3005;DHT22;1512;51.486;6.610;2022-09-25T19:34:40;13.80;99.90
3005;DHT22;1512;51.486;6.610;2022-09-25T19:38:48;13.70;99.90
3005;DHT22;1512;51.486;6.610;2022-09-25T19:42:57;13.60;99.90
3005;DHT22;1512;51.486;6.610;2022-09-25T19:47:07;13.50;99.90
3005;DHT22;1512;51.486;6.610;2022-09-25T19:51:35;13.50;99.90
3005;DHT22;1512;51.486;6.610;2022-09-25T19:55:49;13.40;99.90
3005;DHT22;1512;51.486;6.610;2022-09-25T19:59:58;13.40;99.90
3005;DHT22;1512;51.486;6.610;2022-09-25T20:04:07;13.30;99.90
3005;DHT22;1512;51.486;6.610;2022-09-25T20:08:17;13.30;99.90
3005;DHT22;1512;51.486;6.610;2022-09-25T20:12:26;13.20;99.90
3005;DHT22;1512;51.486;6.610;2022-09-25T20:16:35;13.10;99.90
3005;DHT22;1512;51.486;6.610;2022-09-25T20:20:44;13.00;99.90
3005;DHT22;1512;51.486;6.610;2022-09-25T20:24:52;13.00;99.90
3005;DHT22;1512;51.486;6.610;2022-09-25T20:29:04;13.00;99.90
3005;DHT22;1512;51.486;6.610;2022-09-25T20:33:14;12.90;99.90
3005;DHT22;1512;51.486;6.610;2022-09-25T20:37:23;12.90;99.90
3005;DHT22;1512;51.486;6.610;2022-09-25T20:41:32;12.80;99.90
3005;DHT22;1512;51.486;6.610;2022-09-25T20:45:41;12.70;99.90
3005;DHT22;1512;51.486;6.610;2022-09-25T20:49:49;12.70;99.90
3005;DHT22;1512;51.486;6.610;2022-09-25T20:54:05;12.70;99.90
3005;DHT22;1512;51.486;6.610;2022-09-25T20:58:14;12.60;99.90
3005;DHT22;1512;51.486;6.610;2022-09-25T21:02:24;12.60;99.90
3005;DHT22;1512;51.486;6.610;2022-09-25T21:06:33;12.50;99.90
3005;DHT22;1512;51.486;6.610;2022-09-25T21:10:42;12.50;99.90
3005;DHT22;1512;51.486;6.610;2022-09-25T21:14:51;12.50;99.90
3005;DHT22;1512;51.486;6.610;2022-09-25T21:19:01;12.40;99.90
3005;DHT22;1512;51.486;6.610;2022-09-25T21:23:11;12.40;99.90
3005;DHT22;1512;51.486;6.610;2022-09-25T21:27:19;12.30;99.90
3005;DHT22;1512;51.486;6.610;2022-09-25T21:31:34;12.30;99.90
3005;DHT22;1512;51.486;6.610;2022-09-25T21:36:03;12.30;99.90
3005;DHT22;1512;51.486;6.610;2022-09-25T21:40:13;12.20;99.90
3005;DHT22;1512;51.486;6.610;2022-09-25T21:44:22;12.20;99.90
3005;DHT22;1512;51.486;6.610;2022-09-25T21:48:32;12.10;99.90
3005;DHT22;1512;51.486;6.610;2022-09-25T21:52:42;12.10;99.90
3005;DHT22;1512;51.486;6.610;2022-09-25T21:56:50;12.00;99.90
3005;DHT22;1512;51.486;6.610;2022-09-25T22:05:13;11.90;99.90
3005;DHT22;1512;51.486;6.610;2022-09-25T22:09:22;11.90;99.90
3005;DHT22;1512;51.486;6.610;2022-09-25T22:13:33;11.90;99.90
3005;DHT22;1512;51.486;6.610;2022-09-25T22:18:01;11.80;99.90
3005;DHT22;1512;51.486;6.610;2022-09-25T22:22:10;11.80;99.90
3005;DHT22;1512;51.486;6.610;2022-09-25T22:26:19;11.80;99.90
3005;DHT22;1512;51.486;6.610;2022-09-25T22:30:29;11.70;99.90
3005;DHT22;1512;51.486;6.610;2022-09-25T22:34:38;11.70;99.90
3005;DHT22;1512;51.486;6.610;2022-09-25T22:38:47;11.80;99.90
3005;DHT22;1512;51.486;6.610;2022-09-25T22:43:00;11.70;99.90
3005;DHT22;1512;51.486;6.610;2022-09-25T22:47:08;11.70;99.90
3005;DHT22;1512;51.486;6.610;2022-09-25T22:51:21;11.70;99.90
3005;DHT22;1512;51.486;6.610;2022-09-25T22:55:30;11.70;99.90
3005;DHT22;1512;51.486;6.610;2022-09-25T22:59:40;11.70;99.90
3005;DHT22;1512;51.486;6.610;2022-09-25T23:03:51;11.70;99.90
3005;DHT22;1512;51.486;6.610;2022-09-25T23:07:58;11.70;99.90
3005;DHT22;1512;51.486;6.610;2022-09-25T23:12:07;11.80;99.90
3005;DHT22;1512;51.486;6.610;2022-09-25T23:16:16;11.80;99.90
3005;DHT22;1512;51.486;6.610;2022-09-25T23:20:25;11.70;99.90
3005;DHT22;1512;51.486;6.610;2022-09-25T23:24:34;11.80;99.90
3005;DHT22;1512;51.486;6.610;2022-09-25T23:28:42;11.80;99.90
3005;DHT22;1512;51.486;6.610;2022-09-25T23:37:12;11.80;99.90
3005;DHT22;1512;51.486;6.610;2022-09-25T23:41:41;11.80;99.90
3005;DHT22;1512;51.486;6.610;2022-09-25T23:45:35;11.80;99.90
3005;DHT22;1512;51.486;6.610;2022-09-25T23:49:45;11.80;99.90
3005;DHT22;1512;51.486;6.610;2022-09-25T23:53:56;11.80;99.90
3005;DHT22;1512;51.486;6.610;2022-09-25T23:58:04;11.90;99.90
